sensor_id;sensor_type;location;lat;lon;timestamp;pressure;altitude;pressure_sealevel;temperature
76895;BMP280;65855;42.030;13.078;2023-04-15T00:00:56;93034.28;;;1.25
76895;BMP280;65855;42.030;13.078;2023-04-15T00:03:22;93034.16;;;1.15
76895;BMP280;65855;42.030;13.078;2023-04-15T00:05:48;93024.59;;;1.02
76895;BMP280;65855;42.030;13.078;2023-04-15T00:08:14;93024.03;;;1.78
76895;BMP280;65855;42.030;13.078;2023-04-15T00:10:39;93033.38;;;1.97
76895;BMP280;65855;42.030;13.078;2023-04-15T00:13:05;93023.84;;;2.20
76895;BMP280;65855;42.030;13.078;2023-04-15T00:15:30;93026.66;;;1.62
76895;BMP280;65855;42.030;13.078;2023-04-15T00:17:55;93030.84;;;1.88
76895;BMP280;65855;42.030;13.078;2023-04-15T00:20:21;93030.47;;;1.74
76895;BMP280;65855;42.030;13.078;2023-04-15T00:22:47;93032.78;;;1.86
76895;BMP280;65855;42.030;13.078;2023-04-15T00:25:13;93034.22;;;1.77
76895;BMP280;65855;42.030;13.078;2023-04-15T00:27:39;93025.72;;;1.68
76895;BMP280;65855;42.030;13.078;2023-04-15T00:30:05;93029.44;;;1.70
76895;BMP280;65855;42.030;13.078;2023-04-15T00:32:31;93029.41;;;1.66
76895;BMP280;65855;42.030;13.078;2023-04-15T00:34:56;93027.66;;;1.61
76895;BMP280;65855;42.030;13.078;2023-04-15T00:37:22;93025.66;;;1.63
76895;BMP280;65855;42.030;13.078;2023-04-15T00:39:48;93033.59;;;1.60
76895;BMP280;65855;42.030;13.078;2023-04-15T00:42:14;93028.22;;;1.42
76895;BMP280;65855;42.030;13.078;2023-04-15T00:44:39;93020.59;;;1.48
76895;BMP280;65855;42.030;13.078;2023-04-15T00:47:05;93015.16;;;1.25
76895;BMP280;65855;42.030;13.078;2023-04-15T00:49:31;93010.44;;;1.24
76895;BMP280;65855;42.030;13.078;2023-04-15T00:51:57;93019.94;;;1.32
76895;BMP280;65855;42.030;13.078;2023-04-15T00:54:22;93008.16;;;0.92
76895;BMP280;65855;42.030;13.078;2023-04-15T00:56:48;93000.47;;;1.19
76895;BMP280;65855;42.030;13.078;2023-04-15T00:59:14;93006.66;;;1.47
76895;BMP280;65855;42.030;13.078;2023-04-15T01:01:39;93002.16;;;1.14
76895;BMP280;65855;42.030;13.078;2023-04-15T01:04:05;93003.38;;;1.11
76895;BMP280;65855;42.030;13.078;2023-04-15T01:06:31;92998.41;;;1.11
76895;BMP280;65855;42.030;13.078;2023-04-15T01:08:58;92994.94;;;1.12
76895;BMP280;65855;42.030;13.078;2023-04-15T01:11:24;92994.25;;;1.17
76895;BMP280;65855;42.030;13.078;2023-04-15T01:13:50;92997.75;;;1.20
76895;BMP280;65855;42.030;13.078;2023-04-15T01:16:17;92988.38;;;1.27
76895;BMP280;65855;42.030;13.078;2023-04-15T01:18:43;92988.50;;;1.11
76895;BMP280;65855;42.030;13.078;2023-04-15T01:21:09;92987.00;;;0.84
76895;BMP280;65855;42.030;13.078;2023-04-15T01:23:36;92989.81;;;0.72
76895;BMP280;65855;42.030;13.078;2023-04-15T01:26:03;92990.16;;;1.06
76895;BMP280;65855;42.030;13.078;2023-04-15T01:28:29;92982.78;;;1.11
76895;BMP280;65855;42.030;13.078;2023-04-15T01:31:12;92977.63;;;0.91
76895;BMP280;65855;42.030;13.078;2023-04-15T01:33:39;92988.00;;;0.88
76895;BMP280;65855;42.030;13.078;2023-04-15T01:36:05;92986.06;;;1.16
76895;BMP280;65855;42.030;13.078;2023-04-15T01:38:32;92995.31;;;1.25
76895;BMP280;65855;42.030;13.078;2023-04-15T01:40:58;92995.84;;;1.32
76895;BMP280;65855;42.030;13.078;2023-04-15T01:43:24;93012.44;;;1.27
76895;BMP280;65855;42.030;13.078;2023-04-15T01:45:50;93002.63;;;1.37
76895;BMP280;65855;42.030;13.078;2023-04-15T01:48:15;93004.38;;;1.41
76895;BMP280;65855;42.030;13.078;2023-04-15T01:50:42;93005.94;;;0.95
76895;BMP280;65855;42.030;13.078;2023-04-15T01:53:07;92997.19;;;0.88
76895;BMP280;65855;42.030;13.078;2023-04-15T01:55:33;92995.69;;;0.87
76895;BMP280;65855;42.030;13.078;2023-04-15T01:57:59;92998.03;;;0.77
76895;BMP280;65855;42.030;13.078;2023-04-15T02:00:25;92991.56;;;0.71
76895;BMP280;65855;42.030;13.078;2023-04-15T02:02:51;92985.75;;;0.87
76895;BMP280;65855;42.030;13.078;2023-04-15T02:05:17;92991.75;;;0.91
76895;BMP280;65855;42.030;13.078;2023-04-15T02:07:44;92990.84;;;0.96
76895;BMP280;65855;42.030;13.078;2023-04-15T02:10:09;92990.41;;;1.04
76895;BMP280;65855;42.030;13.078;2023-04-15T02:12:37;92989.31;;;0.95
76895;BMP280;65855;42.030;13.078;2023-04-15T02:15:02;92982.56;;;0.65
76895;BMP280;65855;42.030;13.078;2023-04-15T02:17:28;92971.66;;;0.66
76895;BMP280;65855;42.030;13.078;2023-04-15T02:19:55;92967.50;;;0.72
76895;BMP280;65855;42.030;13.078;2023-04-15T02:22:21;92969.31;;;0.81
76895;BMP280;65855;42.030;13.078;2023-04-15T02:24:46;92976.03;;;1.06
76895;BMP280;65855;42.030;13.078;2023-04-15T02:27:15;92962.75;;;0.91
76895;BMP280;65855;42.030;13.078;2023-04-15T02:29:45;92954.03;;;0.89
76895;BMP280;65855;42.030;13.078;2023-04-15T02:32:13;92947.13;;;0.95
76895;BMP280;65855;42.030;13.078;2023-04-15T02:34:39;92962.38;;;1.09
76895;BMP280;65855;42.030;13.078;2023-04-15T02:37:07;92955.88;;;1.29
76895;BMP280;65855;42.030;13.078;2023-04-15T02:39:33;92957.38;;;1.30
76895;BMP280;65855;42.030;13.078;2023-04-15T02:41:58;92957.78;;;1.17
76895;BMP280;65855;42.030;13.078;2023-04-15T02:44:25;92964.59;;;1.05
76895;BMP280;65855;42.030;13.078;2023-04-15T02:46:52;92957.97;;;1.16
76895;BMP280;65855;42.030;13.078;2023-04-15T02:49:19;92960.19;;;1.12
76895;BMP280;65855;42.030;13.078;2023-04-15T02:51:44;92954.91;;;1.30
76895;BMP280;65855;42.030;13.078;2023-04-15T02:54:20;92949.53;;;1.43
76895;BMP280;65855;42.030;13.078;2023-04-15T02:56:47;92952.88;;;1.27
76895;BMP280;65855;42.030;13.078;2023-04-15T02:59:12;92944.75;;;1.05
76895;BMP280;65855;42.030;13.078;2023-04-15T03:01:38;92964.44;;;0.86
76895;BMP280;65855;42.030;13.078;2023-04-15T03:04:03;92957.41;;;0.78
76895;BMP280;65855;42.030;13.078;2023-04-15T03:06:29;92951.34;;;1.21
76895;BMP280;65855;42.030;13.078;2023-04-15T03:08:55;92948.19;;;1.30
76895;BMP280;65855;42.030;13.078;2023-04-15T03:11:21;92941.88;;;1.49
76895;BMP280;65855;42.030;13.078;2023-04-15T03:13:46;92933.41;;;1.86
76895;BMP280;65855;42.030;13.078;2023-04-15T03:16:12;92917.63;;;2.11
76895;BMP280;65855;42.030;13.078;2023-04-15T03:18:37;92907.81;;;2.40
76895;BMP280;65855;42.030;13.078;2023-04-15T03:21:03;92917.41;;;2.97
76895;BMP280;65855;42.030;13.078;2023-04-15T03:23:30;92915.81;;;2.62
76895;BMP280;65855;42.030;13.078;2023-04-15T03:25:56;92914.28;;;2.41
76895;BMP280;65855;42.030;13.078;2023-04-15T03:28:23;92919.22;;;2.32
76895;BMP280;65855;42.030;13.078;2023-04-15T03:30:48;92919.66;;;2.24
76895;BMP280;65855;42.030;13.078;2023-04-15T03:33:13;92918.44;;;2.31
76895;BMP280;65855;42.030;13.078;2023-04-15T03:35:39;92914.31;;;2.61
76895;BMP280;65855;42.030;13.078;2023-04-15T03:38:04;92915.41;;;3.04
76895;BMP280;65855;42.030;13.078;2023-04-15T03:40:30;92914.66;;;2.99
76895;BMP280;65855;42.030;13.078;2023-04-15T03:42:56;92911.91;;;3.15
76895;BMP280;65855;42.030;13.078;2023-04-15T03:45:21;92907.94;;;3.09
76895;BMP280;65855;42.030;13.078;2023-04-15T03:47:47;92905.44;;;2.94
76895;BMP280;65855;42.030;13.078;2023-04-15T03:50:14;92905.91;;;2.82
76895;BMP280;65855;42.030;13.078;2023-04-15T03:52:39;92903.44;;;2.77
76895;BMP280;65855;42.030;13.078;2023-04-15T03:55:05;92897.19;;;2.74
76895;BMP280;65855;42.030;13.078;2023-04-15T03:57:30;92908.28;;;2.38
76895;BMP280;65855;42.030;13.078;2023-04-15T03:59:56;92905.34;;;2.50
76895;BMP280;65855;42.030;13.078;2023-04-15T04:02:21;92890.47;;;2.65
76895;BMP280;65855;42.030;13.078;2023-04-15T04:04:47;92902.13;;;2.60
76895;BMP280;65855;42.030;13.078;2023-04-15T04:07:16;92901.75;;;2.17
76895;BMP280;65855;42.030;13.078;2023-04-15T04:09:42;92891.84;;;2.22
76895;BMP280;65855;42.030;13.078;2023-04-15T04:12:07;92891.56;;;2.18
76895;BMP280;65855;42.030;13.078;2023-04-15T04:14:33;92901.78;;;2.27
76895;BMP280;65855;42.030;13.078;2023-04-15T04:16:58;92893.34;;;2.38
76895;BMP280;65855;42.030;13.078;2023-04-15T04:19:23;92903.88;;;2.54
76895;BMP280;65855;42.030;13.078;2023-04-15T04:21:50;92918.28;;;2.57
76895;BMP280;65855;42.030;13.078;2023-04-15T04:24:15;92916.84;;;2.66
76895;BMP280;65855;42.030;13.078;2023-04-15T04:26:41;92927.06;;;2.79
76895;BMP280;65855;42.030;13.078;2023-04-15T04:29:06;92923.34;;;2.77
76895;BMP280;65855;42.030;13.078;2023-04-15T04:31:32;92921.84;;;2.81
76895;BMP280;65855;42.030;13.078;2023-04-15T04:33:57;92925.28;;;2.70
76895;BMP280;65855;42.030;13.078;2023-04-15T04:36:22;92930.28;;;2.65
76895;BMP280;65855;42.030;13.078;2023-04-15T04:38:48;92914.38;;;2.71
76895;BMP280;65855;42.030;13.078;2023-04-15T04:41:13;92914.09;;;2.72
76895;BMP280;65855;42.030;13.078;2023-04-15T04:43:39;92913.84;;;2.74
76895;BMP280;65855;42.030;13.078;2023-04-15T04:46:04;92910.88;;;2.82
76895;BMP280;65855;42.030;13.078;2023-04-15T04:48:30;92919.34;;;2.86
76895;BMP280;65855;42.030;13.078;2023-04-15T04:50:55;92920.88;;;3.01
76895;BMP280;65855;42.030;13.078;2023-04-15T04:53:21;92922.13;;;2.99
76895;BMP280;65855;42.030;13.078;2023-04-15T04:55:46;92921.38;;;3.08
76895;BMP280;65855;42.030;13.078;2023-04-15T04:58:11;92918.38;;;3.21
76895;BMP280;65855;42.030;13.078;2023-04-15T05:00:37;92923.13;;;3.22
76895;BMP280;65855;42.030;13.078;2023-04-15T05:03:03;92913.91;;;3.33
76895;BMP280;65855;42.030;13.078;2023-04-15T05:05:28;92900.47;;;3.48
76895;BMP280;65855;42.030;13.078;2023-04-15T05:07:54;92898.22;;;3.61
76895;BMP280;65855;42.030;13.078;2023-04-15T05:10:19;92906.41;;;3.72
76895;BMP280;65855;42.030;13.078;2023-04-15T05:12:45;92896.22;;;3.63
76895;BMP280;65855;42.030;13.078;2023-04-15T05:15:10;92895.19;;;3.59
76895;BMP280;65855;42.030;13.078;2023-04-15T05:17:36;92899.44;;;3.59
76895;BMP280;65855;42.030;13.078;2023-04-15T05:20:02;92891.47;;;3.67
76895;BMP280;65855;42.030;13.078;2023-04-15T05:22:27;92883.22;;;3.71
76895;BMP280;65855;42.030;13.078;2023-04-15T05:24:53;92883.00;;;3.68
76895;BMP280;65855;42.030;13.078;2023-04-15T05:27:18;92883.97;;;3.82
76895;BMP280;65855;42.030;13.078;2023-04-15T05:29:44;92890.44;;;3.92
76895;BMP280;65855;42.030;13.078;2023-04-15T05:32:09;92896.47;;;3.62
76895;BMP280;65855;42.030;13.078;2023-04-15T05:34:35;92894.19;;;3.65
76895;BMP280;65855;42.030;13.078;2023-04-15T05:37:01;92896.47;;;3.67
76895;BMP280;65855;42.030;13.078;2023-04-15T05:39:26;92910.69;;;3.22
76895;BMP280;65855;42.030;13.078;2023-04-15T05:41:52;92902.97;;;3.29
76895;BMP280;65855;42.030;13.078;2023-04-15T05:44:17;92903.47;;;3.26
76895;BMP280;65855;42.030;13.078;2023-04-15T05:46:43;92907.69;;;3.15
76895;BMP280;65855;42.030;13.078;2023-04-15T05:49:08;92900.94;;;3.40
76895;BMP280;65855;42.030;13.078;2023-04-15T05:51:34;92894.47;;;3.44
76895;BMP280;65855;42.030;13.078;2023-04-15T05:53:59;92894.47;;;3.59
76895;BMP280;65855;42.030;13.078;2023-04-15T05:56:25;92897.47;;;3.51
76895;BMP280;65855;42.030;13.078;2023-04-15T05:58:51;92893.22;;;3.61
76895;BMP280;65855;42.030;13.078;2023-04-15T06:01:16;92895.47;;;3.58
76895;BMP280;65855;42.030;13.078;2023-04-15T06:03:42;92887.47;;;3.71
76895;BMP280;65855;42.030;13.078;2023-04-15T06:06:07;92882.22;;;3.82
76895;BMP280;65855;42.030;13.078;2023-04-15T06:08:34;92889.94;;;3.81
76895;BMP280;65855;42.030;13.078;2023-04-15T06:10:59;92880.00;;;3.76
76895;BMP280;65855;42.030;13.078;2023-04-15T06:13:25;92878.97;;;3.77
76895;BMP280;65855;42.030;13.078;2023-04-15T06:15:51;92872.50;;;3.81
76895;BMP280;65855;42.030;13.078;2023-04-15T06:18:17;92871.78;;;3.70
76895;BMP280;65855;42.030;13.078;2023-04-15T06:20:43;92866.78;;;3.65
76895;BMP280;65855;42.030;13.078;2023-04-15T06:23:08;92863.56;;;3.70
76895;BMP280;65855;42.030;13.078;2023-04-15T06:25:34;92873.28;;;3.61
76895;BMP280;65855;42.030;13.078;2023-04-15T06:27:59;92874.53;;;3.74
76895;BMP280;65855;42.030;13.078;2023-04-15T06:30:25;92877.97;;;3.92
76895;BMP280;65855;42.030;13.078;2023-04-15T06:32:50;92879.72;;;3.72
76895;BMP280;65855;42.030;13.078;2023-04-15T06:35:16;92877.97;;;3.87
76895;BMP280;65855;42.030;13.078;2023-04-15T06:37:41;92877.97;;;3.78
76895;BMP280;65855;42.030;13.078;2023-04-15T06:40:07;92883.50;;;3.60
76895;BMP280;65855;42.030;13.078;2023-04-15T06:42:34;92877.53;;;3.61
76895;BMP280;65855;42.030;13.078;2023-04-15T06:45:01;92871.78;;;3.70
76895;BMP280;65855;42.030;13.078;2023-04-15T06:47:26;92876.00;;;3.75
76895;BMP280;65855;42.030;13.078;2023-04-15T06:49:51;92872.53;;;3.66
76895;BMP280;65855;42.030;13.078;2023-04-15T06:52:17;92865.06;;;3.61
76895;BMP280;65855;42.030;13.078;2023-04-15T06:54:42;92867.31;;;3.53
76895;BMP280;65855;42.030;13.078;2023-04-15T06:57:08;92868.06;;;3.53
76895;BMP280;65855;42.030;13.078;2023-04-15T06:59:34;92861.84;;;3.60
76895;BMP280;65855;42.030;13.078;2023-04-15T07:01:59;92856.34;;;3.63
76895;BMP280;65855;42.030;13.078;2023-04-15T07:04:25;92855.28;;;3.79
76895;BMP280;65855;42.030;13.078;2023-04-15T07:06:52;92868.06;;;3.68
76895;BMP280;65855;42.030;13.078;2023-04-15T07:09:18;92867.56;;;3.61
76895;BMP280;65855;42.030;13.078;2023-04-15T07:11:44;92863.31;;;3.61
76895;BMP280;65855;42.030;13.078;2023-04-15T07:14:09;92865.28;;;3.74
76895;BMP280;65855;42.030;13.078;2023-04-15T07:16:35;92870.25;;;3.84
76895;BMP280;65855;42.030;13.078;2023-04-15T07:19:00;92880.44;;;3.92
76895;BMP280;65855;42.030;13.078;2023-04-15T07:21:26;92883.44;;;3.94
76895;BMP280;65855;42.030;13.078;2023-04-15T07:23:51;92877.44;;;3.95
76895;BMP280;65855;42.030;13.078;2023-04-15T07:26:17;92868.47;;;3.99
76895;BMP280;65855;42.030;13.078;2023-04-15T07:28:42;92869.44;;;4.03
76895;BMP280;65855;42.030;13.078;2023-04-15T07:31:10;92880.69;;;3.96
76895;BMP280;65855;42.030;13.078;2023-04-15T07:33:36;92874.00;;;3.82
76895;BMP280;65855;42.030;13.078;2023-04-15T07:36:01;92877.97;;;3.83
76895;BMP280;65855;42.030;13.078;2023-04-15T07:38:27;92880.69;;;3.96
76895;BMP280;65855;42.030;13.078;2023-04-15T07:40:52;92875.97;;;3.89
76895;BMP280;65855;42.030;13.078;2023-04-15T07:43:18;92885.38;;;4.12
76895;BMP280;65855;42.030;13.078;2023-04-15T07:45:45;92887.88;;;4.07
76895;BMP280;65855;42.030;13.078;2023-04-15T07:48:10;92885.38;;;4.12
76895;BMP280;65855;42.030;13.078;2023-04-15T07:50:36;92885.88;;;4.09
76895;BMP280;65855;42.030;13.078;2023-04-15T07:53:02;92883.13;;;4.10
76895;BMP280;65855;42.030;13.078;2023-04-15T07:55:27;92888.84;;;4.11
76895;BMP280;65855;42.030;13.078;2023-04-15T07:57:54;92891.81;;;4.23
76895;BMP280;65855;42.030;13.078;2023-04-15T08:00:20;92887.81;;;4.17
76895;BMP280;65855;42.030;13.078;2023-04-15T08:02:45;92895.28;;;4.27
76895;BMP280;65855;42.030;13.078;2023-04-15T08:05:13;92897.91;;;3.87
76895;BMP280;65855;42.030;13.078;2023-04-15T08:07:39;92890.97;;;3.80
76895;BMP280;65855;42.030;13.078;2023-04-15T08:10:05;92898.44;;;3.80
76895;BMP280;65855;42.030;13.078;2023-04-15T08:12:31;92900.94;;;3.80
76895;BMP280;65855;42.030;13.078;2023-04-15T08:14:56;92909.31;;;3.98
76895;BMP280;65855;42.030;13.078;2023-04-15T08:17:23;92908.09;;;4.06
76895;BMP280;65855;42.030;13.078;2023-04-15T08:19:48;92903.81;;;4.11
76895;BMP280;65855;42.030;13.078;2023-04-15T08:22:14;92900.34;;;4.12
76895;BMP280;65855;42.030;13.078;2023-04-15T08:24:39;92899.56;;;4.11
76895;BMP280;65855;42.030;13.078;2023-04-15T08:27:05;92896.56;;;4.19
76895;BMP280;65855;42.030;13.078;2023-04-15T08:29:32;92904.78;;;4.25
76895;BMP280;65855;42.030;13.078;2023-04-15T08:32:00;92911.75;;;4.28
76895;BMP280;65855;42.030;13.078;2023-04-15T08:34:26;92904.00;;;4.34
76895;BMP280;65855;42.030;13.078;2023-04-15T08:36:52;92906.22;;;4.35
76895;BMP280;65855;42.030;13.078;2023-04-15T08:39:17;92901.94;;;4.46
76895;BMP280;65855;42.030;13.078;2023-04-15T08:44:13;92906.19;;;4.45
76895;BMP280;65855;42.030;13.078;2023-04-15T08:46:40;92905.66;;;4.53
76895;BMP280;65855;42.030;13.078;2023-04-15T08:49:09;92901.75;;;4.28
76895;BMP280;65855;42.030;13.078;2023-04-15T08:51:35;92903.19;;;4.43
76895;BMP280;65855;42.030;13.078;2023-04-15T08:54:01;92917.22;;;4.30
76895;BMP280;65855;42.030;13.078;2023-04-15T08:56:30;92917.09;;;4.64
76895;BMP280;65855;42.030;13.078;2023-04-15T08:58:58;92920.50;;;4.78
76895;BMP280;65855;42.030;13.078;2023-04-15T09:01:24;92922.03;;;4.69
76895;BMP280;65855;42.030;13.078;2023-04-15T09:03:49;92917.00;;;4.78
76895;BMP280;65855;42.030;13.078;2023-04-15T09:06:16;92918.00;;;4.78
76895;BMP280;65855;42.030;13.078;2023-04-15T09:08:42;92916.47;;;4.81
76895;BMP280;65855;42.030;13.078;2023-04-15T09:11:08;92919.47;;;4.83
76895;BMP280;65855;42.030;13.078;2023-04-15T09:13:33;92919.88;;;4.57
76895;BMP280;65855;42.030;13.078;2023-04-15T09:16:01;92917.13;;;4.54
76895;BMP280;65855;42.030;13.078;2023-04-15T09:18:29;92908.97;;;4.81
76895;BMP280;65855;42.030;13.078;2023-04-15T09:20:55;92902.00;;;4.83
76895;BMP280;65855;42.030;13.078;2023-04-15T09:23:29;92910.50;;;4.82
76895;BMP280;65855;42.030;13.078;2023-04-15T09:25:56;92899.41;;;4.98
76895;BMP280;65855;42.030;13.078;2023-04-15T09:28:25;92893.88;;;5.01
76895;BMP280;65855;42.030;13.078;2023-04-15T09:30:54;92900.63;;;5.01
76895;BMP280;65855;42.030;13.078;2023-04-15T09:33:20;92894.16;;;5.32
76895;BMP280;65855;42.030;13.078;2023-04-15T09:36:04;92886.03;;;5.50
76895;BMP280;65855;42.030;13.078;2023-04-15T09:38:31;92881.72;;;5.55
76895;BMP280;65855;42.030;13.078;2023-04-15T09:40:57;92872.75;;;5.54
76895;BMP280;65855;42.030;13.078;2023-04-15T09:43:37;92876.75;;;5.23
76895;BMP280;65855;42.030;13.078;2023-04-15T09:46:03;92858.88;;;5.39
76895;BMP280;65855;42.030;13.078;2023-04-15T09:48:29;92861.38;;;5.95
76895;BMP280;65855;42.030;13.078;2023-04-15T09:50:59;92855.13;;;6.38
76895;BMP280;65855;42.030;13.078;2023-04-15T09:53:25;92843.50;;;6.65
76895;BMP280;65855;42.030;13.078;2023-04-15T09:55:53;92856.13;;;6.73
76895;BMP280;65855;42.030;13.078;2023-04-15T09:58:22;92851.00;;;6.65
76895;BMP280;65855;42.030;13.078;2023-04-15T10:00:50;92843.03;;;6.63
76895;BMP280;65855;42.030;13.078;2023-04-15T10:03:26;92850.28;;;6.42
76895;BMP280;65855;42.030;13.078;2023-04-15T10:05:54;92846.53;;;6.44
76895;BMP280;65855;42.030;13.078;2023-04-15T10:08:24;92840.69;;;6.48
76895;BMP280;65855;42.030;13.078;2023-04-15T10:10:50;92842.53;;;6.43
76895;BMP280;65855;42.030;13.078;2023-04-15T10:13:18;92839.28;;;6.61
76895;BMP280;65855;42.030;13.078;2023-04-15T10:15:47;92837.59;;;6.74
76895;BMP280;65855;42.030;13.078;2023-04-15T10:18:15;92834.09;;;7.07
76895;BMP280;65855;42.030;13.078;2023-04-15T10:20:45;92819.59;;;7.80
76895;BMP280;65855;42.030;13.078;2023-04-15T10:23:11;92811.63;;;8.31
76895;BMP280;65855;42.030;13.078;2023-04-15T10:25:37;92817.78;;;8.12
76895;BMP280;65855;42.030;13.078;2023-04-15T10:28:05;92813.47;;;7.99
76895;BMP280;65855;42.030;13.078;2023-04-15T10:30:32;92818.22;;;8.00
76895;BMP280;65855;42.030;13.078;2023-04-15T10:32:59;92815.59;;;7.79
76895;BMP280;65855;42.030;13.078;2023-04-15T10:35:25;92814.97;;;7.87
76895;BMP280;65855;42.030;13.078;2023-04-15T10:37:51;92822.19;;;7.88
76895;BMP280;65855;42.030;13.078;2023-04-15T10:40:28;92820.34;;;7.80
76895;BMP280;65855;42.030;13.078;2023-04-15T10:42:57;92819.22;;;7.60
76895;BMP280;65855;42.030;13.078;2023-04-15T10:45:44;92808.22;;;7.56
76895;BMP280;65855;42.030;13.078;2023-04-15T10:48:15;92809.06;;;7.51
76895;BMP280;65855;42.030;13.078;2023-04-15T10:50:55;92800.59;;;7.34
76895;BMP280;65855;42.030;13.078;2023-04-15T10:53:30;92805.50;;;6.95
76895;BMP280;65855;42.030;13.078;2023-04-15T10:55:59;92797.66;;;6.83
76895;BMP280;65855;42.030;13.078;2023-04-15T10:58:25;92810.66;;;6.48
76895;BMP280;65855;42.030;13.078;2023-04-15T11:00:52;92793.66;;;6.82
76895;BMP280;65855;42.030;13.078;2023-04-15T11:03:36;92797.41;;;7.16
76895;BMP280;65855;42.030;13.078;2023-04-15T11:06:02;92793.22;;;7.24
76895;BMP280;65855;42.030;13.078;2023-04-15T11:08:56;92789.66;;;7.57
76895;BMP280;65855;42.030;13.078;2023-04-15T11:14:28;92788.72;;;6.77
76895;BMP280;65855;42.030;13.078;2023-04-15T11:16:54;92784.06;;;6.34
76895;BMP280;65855;42.030;13.078;2023-04-15T11:19:20;92772.78;;;6.86
76895;BMP280;65855;42.030;13.078;2023-04-15T11:21:45;92784.88;;;6.48
76895;BMP280;65855;42.030;13.078;2023-04-15T11:24:10;92784.59;;;6.13
76895;BMP280;65855;42.030;13.078;2023-04-15T11:26:36;92771.34;;;6.49
76895;BMP280;65855;42.030;13.078;2023-04-15T11:29:02;92775.47;;;6.22
76895;BMP280;65855;42.030;13.078;2023-04-15T11:31:27;92760.06;;;6.51
76895;BMP280;65855;42.030;13.078;2023-04-15T11:33:57;92762.75;;;6.55
76895;BMP280;65855;42.030;13.078;2023-04-15T11:36:28;92758.47;;;6.73
76895;BMP280;65855;42.030;13.078;2023-04-15T11:38:57;92739.53;;;6.68
76895;BMP280;65855;42.030;13.078;2023-04-15T11:41:23;92746.63;;;7.23
76895;BMP280;65855;42.030;13.078;2023-04-15T11:43:49;92748.06;;;7.69
76895;BMP280;65855;42.030;13.078;2023-04-15T11:46:15;92738.75;;;7.96
76895;BMP280;65855;42.030;13.078;2023-04-15T11:48:43;92743.22;;;7.99
76895;BMP280;65855;42.030;13.078;2023-04-15T11:51:10;92755.56;;;7.29
76895;BMP280;65855;42.030;13.078;2023-04-15T11:53:46;92737.66;;;7.49
76895;BMP280;65855;42.030;13.078;2023-04-15T11:56:20;92749.34;;;7.40
76895;BMP280;65855;42.030;13.078;2023-04-15T11:58:47;92759.09;;;7.55
76895;BMP280;65855;42.030;13.078;2023-04-15T12:01:14;92758.91;;;7.51
76895;BMP280;65855;42.030;13.078;2023-04-15T12:03:42;92749.91;;;7.50
76895;BMP280;65855;42.030;13.078;2023-04-15T12:11:29;92752.06;;;6.99
76895;BMP280;65855;42.030;13.078;2023-04-15T12:16:51;92758.00;;;6.71
76895;BMP280;65855;42.030;13.078;2023-04-15T12:19:37;92752.09;;;6.81
76895;BMP280;65855;42.030;13.078;2023-04-15T12:22:05;92747.91;;;6.76
76895;BMP280;65855;42.030;13.078;2023-04-15T12:24:35;92762.34;;;6.48
76895;BMP280;65855;42.030;13.078;2023-04-15T12:27:04;92760.41;;;6.45
76895;BMP280;65855;42.030;13.078;2023-04-15T12:29:31;92760.00;;;6.38
76895;BMP280;65855;42.030;13.078;2023-04-15T12:34:31;92756.97;;;5.82
76895;BMP280;65855;42.030;13.078;2023-04-15T12:36:59;92757.97;;;5.58
76895;BMP280;65855;42.030;13.078;2023-04-15T12:39:27;92762.66;;;5.87
76895;BMP280;65855;42.030;13.078;2023-04-15T12:41:53;92762.63;;;5.92
76895;BMP280;65855;42.030;13.078;2023-04-15T12:44:22;92763.25;;;6.21
76895;BMP280;65855;42.030;13.078;2023-04-15T12:46:48;92768.94;;;6.44
76895;BMP280;65855;42.030;13.078;2023-04-15T12:49:14;92773.03;;;6.53
76895;BMP280;65855;42.030;13.078;2023-04-15T12:51:40;92780.63;;;6.48
76895;BMP280;65855;42.030;13.078;2023-04-15T12:54:06;92777.97;;;6.40
76895;BMP280;65855;42.030;13.078;2023-04-15T12:56:31;92771.91;;;6.46
76895;BMP280;65855;42.030;13.078;2023-04-15T12:58:56;92768.38;;;6.47
76895;BMP280;65855;42.030;13.078;2023-04-15T13:01:22;92765.25;;;6.55
76895;BMP280;65855;42.030;13.078;2023-04-15T13:03:48;92774.63;;;6.31
76895;BMP280;65855;42.030;13.078;2023-04-15T13:06:15;92766.09;;;5.91
76895;BMP280;65855;42.030;13.078;2023-04-15T13:08:40;92765.38;;;6.09
76895;BMP280;65855;42.030;13.078;2023-04-15T13:11:06;92762.84;;;6.14
76895;BMP280;65855;42.030;13.078;2023-04-15T13:13:32;92754.88;;;5.89
76895;BMP280;65855;42.030;13.078;2023-04-15T13:15:57;92762.38;;;5.89
76895;BMP280;65855;42.030;13.078;2023-04-15T13:18:23;92753.50;;;6.01
76895;BMP280;65855;42.030;13.078;2023-04-15T13:20:49;92748.69;;;6.04
76895;BMP280;65855;42.030;13.078;2023-04-15T13:23:14;92739.75;;;6.17
76895;BMP280;65855;42.030;13.078;2023-04-15T13:25:40;92739.38;;;6.28
76895;BMP280;65855;42.030;13.078;2023-04-15T13:28:06;92742.47;;;6.38
76895;BMP280;65855;42.030;13.078;2023-04-15T13:30:31;92742.81;;;6.81
76895;BMP280;65855;42.030;13.078;2023-04-15T13:32:57;92735.75;;;7.01
76895;BMP280;65855;42.030;13.078;2023-04-15T13:35:22;92730.47;;;7.16
76895;BMP280;65855;42.030;13.078;2023-04-15T13:37:48;92738.22;;;6.88
76895;BMP280;65855;42.030;13.078;2023-04-15T13:40:13;92727.63;;;6.91
76895;BMP280;65855;42.030;13.078;2023-04-15T13:42:39;92725.81;;;7.10
76895;BMP280;65855;42.030;13.078;2023-04-15T13:45:05;92737.41;;;7.06
76895;BMP280;65855;42.030;13.078;2023-04-15T13:47:31;92737.19;;;6.89
76895;BMP280;65855;42.030;13.078;2023-04-15T13:49:57;92733.88;;;7.07
76895;BMP280;65855;42.030;13.078;2023-04-15T13:52:22;92724.03;;;6.97
76895;BMP280;65855;42.030;13.078;2023-04-15T13:54:48;92724.91;;;7.19
76895;BMP280;65855;42.030;13.078;2023-04-15T13:57:13;92712.00;;;7.25
76895;BMP280;65855;42.030;13.078;2023-04-15T13:59:39;92712.13;;;6.76
76895;BMP280;65855;42.030;13.078;2023-04-15T14:02:05;92703.38;;;7.31
76895;BMP280;65855;42.030;13.078;2023-04-15T14:04:31;92693.81;;;7.60
76895;BMP280;65855;42.030;13.078;2023-04-15T14:06:57;92691.78;;;7.48
76895;BMP280;65855;42.030;13.078;2023-04-15T14:09:22;92692.66;;;6.86
76895;BMP280;65855;42.030;13.078;2023-04-15T14:11:51;92675.44;;;7.24
76895;BMP280;65855;42.030;13.078;2023-04-15T14:14:16;92676.00;;;7.48
76895;BMP280;65855;42.030;13.078;2023-04-15T14:16:42;92676.72;;;7.62
76895;BMP280;65855;42.030;13.078;2023-04-15T14:19:07;92676.81;;;7.57
76895;BMP280;65855;42.030;13.078;2023-04-15T14:21:33;92674.16;;;7.88